MNB724 LTFM-EHAM
Flight info
| Callsign | MNB724 |
|---|---|
| Flight time | N/A |
| Altitude | 34000 |
| Route | TUDBU DCT ETUBA DCT ELDET DCT BACAM DCT SODGO DCT INVED DCT DITIS DCT VARIK DCT KATCE DCT NORKU |
| Aircraft | A306/H-SDE3FGHIRWY/LB1 |
Departure
| Time | N/A |
|---|---|
| Airport | İstanbul Airport (LTFM) |
Arrival
| Time | 2026-04-27 18:30 |
|---|---|
| Airport | Amsterdam Airport Schiphol (EHAM) |
| Time | Latitude | Longitude | Altitude | Speed | Heading |
|---|---|---|---|---|---|
| 2026-04-27 17:54 | 51.75628 | 8.64390 | 34207 ft | 397 kts | 291° |
| 2026-04-27 17:54 | 51.76795 | 8.60299 | 34207 ft | 397 kts | 291° |
| 2026-04-27 17:55 | 51.79085 | 8.52248 | 34205 ft | 397 kts | 291° |
| 2026-04-27 17:55 | 51.81384 | 8.44137 | 34202 ft | 397 kts | 291° |
| 2026-04-27 17:56 | 51.83681 | 8.36008 | 34200 ft | 398 kts | 291° |
| 2026-04-27 17:56 | 51.85974 | 8.27862 | 34205 ft | 398 kts | 291° |
| 2026-04-27 17:57 | 51.88265 | 8.19696 | 34207 ft | 399 kts | 291° |
| 2026-04-27 17:57 | 51.90551 | 8.11518 | 34208 ft | 399 kts | 291° |
| 2026-04-27 17:58 | 51.92835 | 8.03321 | 34216 ft | 399 kts | 291° |
| 2026-04-27 17:58 | 51.95114 | 7.95112 | 34226 ft | 400 kts | 291° |
| 2026-04-27 17:59 | 51.97391 | 7.86881 | 34216 ft | 400 kts | 291° |
| 2026-04-27 17:59 | 51.99664 | 7.78635 | 34206 ft | 401 kts | 290° |
| 2026-04-27 18:00 | 52.01938 | 7.70355 | 34202 ft | 404 kts | 290° |
| 2026-04-27 18:00 | 52.04232 | 7.61970 | 34203 ft | 407 kts | 290° |
| 2026-04-27 18:01 | 52.06530 | 7.53545 | 34031 ft | 408 kts | 290° |
| 2026-04-27 18:01 | 52.07677 | 7.49325 | 33445 ft | 408 kts | 290° |
| 2026-04-27 18:01 | 52.08821 | 7.45113 | 32708 ft | 407 kts | 290° |
| 2026-04-27 18:02 | 52.09959 | 7.40914 | 32001 ft | 405 kts | 290° |
| 2026-04-27 18:02 | 52.11091 | 7.36728 | 31313 ft | 403 kts | 290° |
| 2026-04-27 18:02 | 52.12219 | 7.32551 | 30640 ft | 402 kts | 290° |
| 2026-04-27 18:02 | 52.13337 | 7.28401 | 30033 ft | 399 kts | 290° |
| 2026-04-27 18:03 | 52.14441 | 7.24300 | 29453 ft | 393 kts | 291° |
| 2026-04-27 18:03 | 52.15489 | 7.20218 | 28891 ft | 388 kts | 289° |
| 2026-04-27 18:03 | 52.16444 | 7.16131 | 28380 ft | 383 kts | 288° |
| 2026-04-27 18:03 | 52.17369 | 7.12076 | 28234 ft | 383 kts | 288° |
| 2026-04-27 18:04 | 52.19217 | 7.03891 | 28209 ft | 386 kts | 288° |
| 2026-04-27 18:04 | 52.21066 | 6.95660 | 28207 ft | 387 kts | 288° |
| 2026-04-27 18:05 | 52.22911 | 6.87410 | 28074 ft | 387 kts | 288° |
| 2026-04-27 18:05 | 52.23831 | 6.83287 | 27627 ft | 387 kts | 288° |
| 2026-04-27 18:05 | 52.24749 | 6.79162 | 27026 ft | 386 kts | 288° |
| 2026-04-27 18:06 | 52.25663 | 6.75046 | 26381 ft | 385 kts | 288° |
| 2026-04-27 18:06 | 52.26575 | 6.70931 | 25699 ft | 386 kts | 288° |
| 2026-04-27 18:06 | 52.27486 | 6.66806 | 25024 ft | 387 kts | 288° |
| 2026-04-27 18:06 | 52.28398 | 6.62674 | 24369 ft | 386 kts | 288° |
| 2026-04-27 18:07 | 52.29302 | 6.58574 | 23738 ft | 382 kts | 288° |
| 2026-04-27 18:07 | 52.30195 | 6.54514 | 23031 ft | 378 kts | 288° |
| 2026-04-27 18:07 | 52.31080 | 6.50483 | 22454 ft | 375 kts | 288° |
| 2026-04-27 18:07 | 52.31956 | 6.46481 | 21918 ft | 373 kts | 288° |
| 2026-04-27 18:08 | 52.32826 | 6.42499 | 21400 ft | 370 kts | 288° |
| 2026-04-27 18:08 | 52.33688 | 6.38546 | 20890 ft | 368 kts | 288° |
| 2026-04-27 18:08 | 52.34542 | 6.34621 | 20304 ft | 365 kts | 289° |
| 2026-04-27 18:08 | 52.35389 | 6.30726 | 19684 ft | 361 kts | 289° |
| 2026-04-27 18:09 | 52.36226 | 6.26865 | 19082 ft | 359 kts | 289° |
| 2026-04-27 18:09 | 52.37058 | 6.23024 | 18463 ft | 357 kts | 289° |
| 2026-04-27 18:09 | 52.37881 | 6.19215 | 17793 ft | 352 kts | 289° |
| 2026-04-27 18:09 | 52.38686 | 6.15484 | 17129 ft | 344 kts | 289° |
| 2026-04-27 18:10 | 52.39473 | 6.11826 | 16476 ft | 338 kts | 289° |
| 2026-04-27 18:10 | 52.40245 | 6.08229 | 15836 ft | 332 kts | 289° |
| 2026-04-27 18:10 | 52.41006 | 6.04681 | 15211 ft | 328 kts | 290° |
| 2026-04-27 18:10 | 52.41754 | 6.01185 | 14592 ft | 321 kts | 290° |
| 2026-04-27 18:11 | 52.42480 | 5.97788 | 13980 ft | 311 kts | 290° |
| 2026-04-27 18:11 | 52.43174 | 5.94536 | 13343 ft | 301 kts | 290° |
| 2026-04-27 18:11 | 52.43865 | 5.91295 | 12737 ft | 294 kts | 289° |
| 2026-04-27 18:11 | 52.44535 | 5.88153 | 12136 ft | 291 kts | 289° |
| 2026-04-27 18:12 | 52.45190 | 5.85076 | 11562 ft | 288 kts | 289° |
| 2026-04-27 18:12 | 52.45856 | 5.81942 | 10988 ft | 287 kts | 288° |
| 2026-04-27 18:12 | 52.46497 | 5.78917 | 10410 ft | 282 kts | 288° |
| 2026-04-27 18:12 | 52.47130 | 5.75926 | 9885 ft | 273 kts | 288° |
| 2026-04-27 18:13 | 52.47743 | 5.73018 | 9352 ft | 268 kts | 288° |
| 2026-04-27 18:13 | 52.48349 | 5.70140 | 8840 ft | 266 kts | 288° |
| 2026-04-27 18:13 | 52.48950 | 5.67276 | 8382 ft | 265 kts | 288° |
| 2026-04-27 18:13 | 52.49551 | 5.64412 | 8011 ft | 267 kts | 288° |
| 2026-04-27 18:14 | 52.50155 | 5.61533 | 7758 ft | 266 kts | 288° |
| 2026-04-27 18:14 | 52.50612 | 5.58614 | 7499 ft | 264 kts | 277° |
| 2026-04-27 18:14 | 52.50488 | 5.55637 | 7242 ft | 263 kts | 253° |
| 2026-04-27 18:14 | 52.49816 | 5.52848 | 7006 ft | 263 kts | 245° |
| 2026-04-27 18:15 | 52.48938 | 5.50204 | 6763 ft | 264 kts | 240° |
| 2026-04-27 18:15 | 52.47960 | 5.47643 | 6513 ft | 265 kts | 238° |
| 2026-04-27 18:15 | 52.46952 | 5.45118 | 6252 ft | 264 kts | 237° |
| 2026-04-27 18:15 | 52.45948 | 5.42596 | 5998 ft | 263 kts | 238° |
| 2026-04-27 18:16 | 52.44965 | 5.40072 | 5783 ft | 262 kts | 238° |
| 2026-04-27 18:16 | 52.44000 | 5.37541 | 5577 ft | 263 kts | 239° |
| 2026-04-27 18:16 | 52.43022 | 5.34929 | 5391 ft | 271 kts | 239° |
| 2026-04-27 18:16 | 52.42064 | 5.32346 | 5183 ft | 271 kts | 239° |
| 2026-04-27 18:17 | 52.41089 | 5.29710 | 4990 ft | 270 kts | 239° |
| 2026-04-27 18:17 | 52.40120 | 5.27085 | 4779 ft | 269 kts | 239° |
| 2026-04-27 18:17 | 52.39151 | 5.24467 | 4572 ft | 268 kts | 239° |
| 2026-04-27 18:17 | 52.38187 | 5.21864 | 4368 ft | 268 kts | 239° |
| 2026-04-27 18:18 | 52.37217 | 5.19250 | 4161 ft | 268 kts | 239° |
| 2026-04-27 18:18 | 52.36250 | 5.16657 | 4012 ft | 267 kts | 239° |
| 2026-04-27 18:18 | 52.35283 | 5.14061 | 3997 ft | 267 kts | 239° |
| 2026-04-27 18:18 | 52.34294 | 5.11495 | 3995 ft | 267 kts | 238° |
| 2026-04-27 18:19 | 52.33277 | 5.08952 | 3995 ft | 267 kts | 237° |
| 2026-04-27 18:19 | 52.32259 | 5.06413 | 3993 ft | 267 kts | 237° |
| 2026-04-27 18:19 | 52.31236 | 5.03872 | 3945 ft | 268 kts | 238° |
| 2026-04-27 18:19 | 52.30214 | 5.01341 | 3739 ft | 267 kts | 237° |
| 2026-04-27 18:20 | 52.29192 | 4.98811 | 3595 ft | 267 kts | 237° |
| 2026-04-27 18:20 | 52.28171 | 4.96279 | 3452 ft | 267 kts | 237° |
| 2026-04-27 18:20 | 52.27151 | 4.93744 | 3283 ft | 267 kts | 237° |
| 2026-04-27 18:20 | 52.26148 | 4.91240 | 3127 ft | 260 kts | 237° |
| 2026-04-27 18:21 | 52.25178 | 4.88809 | 2956 ft | 251 kts | 237° |
| 2026-04-27 18:21 | 52.24258 | 4.86485 | 2795 ft | 243 kts | 237° |
| 2026-04-27 18:21 | 52.23351 | 4.84169 | 2619 ft | 235 kts | 237° |
| 2026-04-27 18:21 | 52.22500 | 4.81984 | 2482 ft | 228 kts | 237° |
| 2026-04-27 18:22 | 52.21658 | 4.79810 | 2348 ft | 226 kts | 237° |
| 2026-04-27 18:22 | 52.20817 | 4.77637 | 2221 ft | 227 kts | 238° |
| 2026-04-27 18:22 | 52.19978 | 4.75463 | 2100 ft | 227 kts | 237° |
| 2026-04-27 18:22 | 52.19143 | 4.73292 | 2007 ft | 227 kts | 237° |
| 2026-04-27 18:23 | 52.18309 | 4.71116 | 1991 ft | 226 kts | 238° |
| 2026-04-27 18:23 | 52.17473 | 4.68940 | 1996 ft | 226 kts | 237° |
| 2026-04-27 18:23 | 52.16642 | 4.66772 | 1992 ft | 226 kts | 237° |
| 2026-04-27 18:23 | 52.15808 | 4.64602 | 1991 ft | 226 kts | 237° |
| 2026-04-27 18:24 | 52.15011 | 4.62405 | 1991 ft | 226 kts | 248° |
| 2026-04-27 18:24 | 52.14829 | 4.60000 | 2000 ft | 206 kts | 283° |
| 2026-04-27 18:24 | 52.15462 | 4.58081 | 1993 ft | 188 kts | 319° |
| 2026-04-27 18:24 | 52.16491 | 4.56815 | 2000 ft | 185 kts | 331° |
| 2026-04-27 18:25 | 52.17588 | 4.55709 | 1995 ft | 185 kts | 332° |
| 2026-04-27 18:25 | 52.18693 | 4.54622 | 1998 ft | 185 kts | 332° |
| 2026-04-27 18:25 | 52.19854 | 4.53789 | 1967 ft | 181 kts | 356° |
| 2026-04-27 18:25 | 52.21073 | 4.54053 | 1999 ft | 176 kts | 26° |
| 2026-04-27 18:26 | 52.21921 | 4.55408 | 2007 ft | 173 kts | 58° |
| 2026-04-27 18:26 | 52.22528 | 4.57104 | 2002 ft | 174 kts | 60° |
| 2026-04-27 18:26 | 52.23156 | 4.58788 | 1996 ft | 174 kts | 59° |
| 2026-04-27 18:26 | 52.23593 | 4.59920 | 1990 ft | 175 kts | 58° |
| 2026-04-27 18:27 | 52.24218 | 4.61533 | 1834 ft | 162 kts | 59° |
| 2026-04-27 18:27 | 52.24792 | 4.63022 | 1585 ft | 148 kts | 58° |
| 2026-04-27 18:27 | 52.25310 | 4.64372 | 1379 ft | 132 kts | 58° |
| 2026-04-27 18:27 | 52.25777 | 4.65587 | 1202 ft | 127 kts | 58° |
| 2026-04-27 18:28 | 52.26249 | 4.66813 | 1039 ft | 128 kts | 57° |
| 2026-04-27 18:28 | 52.26719 | 4.68036 | 845 ft | 127 kts | 56° |
| 2026-04-27 18:28 | 52.27190 | 4.69257 | 671 ft | 127 kts | 57° |
| 2026-04-27 18:28 | 52.27663 | 4.70488 | 482 ft | 128 kts | 56° |
| 2026-04-27 18:29 | 52.28138 | 4.71710 | 309 ft | 128 kts | 56° |
| 2026-04-27 18:29 | 52.28612 | 4.72957 | 146 ft | 129 kts | 57° |
| 2026-04-27 18:29 | 52.29090 | 4.74191 | 13 ft | 127 kts | 56° |
| 2026-04-27 18:29 | 52.29522 | 4.75312 | 4 ft | 102 kts | 58° |
| 2026-04-27 18:30 | 52.29841 | 4.76142 | 2 ft | 66 kts | 58° |
| 2026-04-27 18:30 | 52.30033 | 4.76644 | 4 ft | 47 kts | 58° |
| 2026-04-27 18:30 | 52.30193 | 4.77060 | 3 ft | 40 kts | 57° |
| 2026-04-27 18:30 | 52.30316 | 4.77394 | 3 ft | 22 kts | 74° |
| 2026-04-27 18:31 | 52.30270 | 4.77539 | 5 ft | 11 kts | 159° |
| 2026-04-27 18:31 | 52.30209 | 4.77529 | 7 ft | 8 kts | 207° |
| 2026-04-27 18:31 | 52.30165 | 4.77483 | 5 ft | 7 kts | 217° |
| 2026-04-27 18:31 | 52.30132 | 4.77428 | 5 ft | 6 kts | 230° |
| 2026-04-27 18:32 | 52.30107 | 4.77371 | 5 ft | 7 kts | 237° |
| 2026-04-27 18:32 | 52.30051 | 4.77225 | 5 ft | 19 kts | 238° |
| 2026-04-27 18:32 | 52.29983 | 4.77048 | 5 ft | 18 kts | 238° |
| 2026-04-27 18:32 | 52.29911 | 4.76887 | 5 ft | 17 kts | 223° |
| 2026-04-27 18:33 | 52.29833 | 4.76751 | 5 ft | 16 kts | 239° |
| 2026-04-27 18:33 | 52.29777 | 4.76604 | 5 ft | 15 kts | 237° |
| 2026-04-27 18:33 | 52.29723 | 4.76528 | 5 ft | 8 kts | 182° |
| 2026-04-27 18:33 | 52.29674 | 4.76561 | 5 ft | 7 kts | 149° |
| 2026-04-27 18:34 | 52.29666 | 4.76570 | 5 ft | 0 kts | 148° |